Time;durP1;ratioP1;P1;durP2;ratioP2;P2;SDS_P1;SDS_P2;PMS_P1;PMS_P2;Temp;Humidity;BMP_temperature;BMP_pressure;BME280_temperature;BME280_humidity;BME280_pressure;Samples;Min_cycle;Max_cycle;Signal;HPM_P1;HPM_P2
2022/08/31 00:05:11;;;;;;;0.95;0.55;;;14.80;99.90;;;;;;5044593;28;20033;-69
2022/08/31 00:07:39;;;;;;;3.40;0.47;;;14.90;99.90;;;;;;5049298;28;20021;-78
2022/08/31 00:10:18;;;;;;;5.47;0.68;;;15.00;99.90;;;;;;5055608;28;20020;-69
2022/08/31 00:12:48;;;;;;;4.05;0.50;;;15.10;99.90;;;;;;5046170;28;20032;-69
2022/08/31 00:15:21;;;;;;;0.50;0.35;;;15.10;99.90;;;;;;5046835;28;20025;-69
2022/08/31 00:17:49;;;;;;;3.13;0.55;;;15.20;99.90;;;;;;5042213;28;20042;-78
2022/08/31 00:20:19;;;;;;;3.72;0.40;;;15.10;99.90;;;;;;5043565;28;20040;-70
2022/08/31 00:22:49;;;;;;;0.40;0.28;;;15.20;99.90;;;;;;5043133;28;20017;-71
2022/08/31 00:25:17;;;;;;;2.85;0.40;;;15.20;99.90;;;;;;5035407;28;20482;-70
2022/08/31 00:27:44;;;;;;;2.50;0.38;;;15.20;99.90;;;;;;5044689;28;20094;-70
2022/08/31 00:30:12;;;;;;;1.27;0.73;;;15.30;99.90;;;;;;5043669;28;20051;-78
2022/08/31 00:32:39;;;;;;;2.30;0.40;;;15.30;99.90;;;;;;5043828;28;20021;-75
2022/08/31 00:35:07;;;;;;;0.73;0.50;;;15.40;99.90;;;;;;5045168;28;20025;-70
2022/08/31 00:37:34;;;;;;;4.10;0.95;;;15.50;99.90;;;;;;5022071;28;20469;-69
2022/08/31 00:40:03;;;;;;;0.82;0.50;;;15.50;99.90;;;;;;5042453;28;20091;-78
2022/08/31 00:42:30;;;;;;;2.22;0.47;;;15.50;99.90;;;;;;5042990;28;20024;-78
2022/08/31 00:44:57;;;;;;;0.95;0.30;;;15.50;99.90;;;;;;5052560;28;20025;-78
2022/08/31 00:47:25;;;;;;;1.40;0.50;;;15.50;99.90;;;;;;5054927;28;20381;-71
2022/08/31 00:49:53;;;;;;;0.77;0.47;;;15.60;99.90;;;;;;5053965;28;20083;-78
2022/08/31 00:52:29;;;;;;;1.10;0.50;;;15.60;99.90;;;;;;5053988;28;20450;-77
2022/08/31 00:55:05;;;;;;;2.65;0.55;;;15.60;99.90;;;;;;5052103;28;20022;-69
2022/08/31 00:57:37;;;;;;;1.17;0.40;;;15.70;99.90;;;;;;5043919;28;20039;-76
2022/08/31 01:00:08;;;;;;;5.45;0.50;;;15.70;99.90;;;;;;5043098;28;20029;-77
2022/08/31 01:02:36;;;;;;;1.20;0.50;;;15.80;99.90;;;;;;5043814;28;20021;-70
2022/08/31 01:05:04;;;;;;;0.90;0.50;;;15.90;99.90;;;;;;5034448;28;20053;-70
2022/08/31 01:07:31;;;;;;;1.42;0.35;;;16.00;99.90;;;;;;5034372;28;20026;-70
2022/08/31 01:10:00;;;;;;;1.58;0.38;;;16.00;99.90;;;;;;5034421;28;20053;-78
2022/08/31 01:12:28;;;;;;;1.55;0.77;;;16.00;99.90;;;;;;5034021;28;20026;-78
2022/08/31 01:14:56;;;;;;;4.88;0.90;;;16.10;99.90;;;;;;5032452;28;20092;-69
2022/08/31 01:17:24;;;;;;;0.63;0.60;;;16.10;99.90;;;;;;5034074;28;20054;-69
2022/08/31 01:20:15;;;;;;;3.40;0.40;;;16.10;99.90;;;;;;5032879;28;20044;-70
2022/08/31 01:23:01;;;;;;;5.45;0.95;;;16.10;99.90;;;;;;5040933;28;20027;-70
2022/08/31 01:25:29;;;;;;;4.35;0.75;;;16.20;99.90;;;;;;5042524;28;20040;-70
2022/08/31 01:27:59;;;;;;;3.47;0.40;;;16.20;99.90;;;;;;5039820;28;20417;-69
2022/08/31 01:30:26;;;;;;;0.63;0.38;;;16.20;99.90;;;;;;5038756;28;20029;-69
2022/08/31 01:32:54;;;;;;;2.15;0.63;;;16.30;99.90;;;;;;5040201;28;20121;-77
2022/08/31 01:35:21;;;;;;;3.40;0.80;;;16.40;99.90;;;;;;5046143;28;20035;-71
2022/08/31 01:37:48;;;;;;;3.05;0.65;;;16.50;99.90;;;;;;5038163;28;20028;-72
2022/08/31 01:40:16;;;;;;;2.70;0.73;;;16.70;99.90;;;;;;5033989;28;20034;-78
2022/08/31 01:42:43;;;;;;;3.88;0.63;;;16.90;99.90;;;;;;5033066;28;20035;-77
2022/08/31 01:45:11;;;;;;;1.77;0.30;;;16.90;99.90;;;;;;5032664;28;20025;-70
2022/08/31 01:47:40;;;;;;;1.92;0.50;;;16.80;99.90;;;;;;5033229;28;20381;-77
2022/08/31 01:50:08;;;;;;;0.98;0.40;;;16.80;99.90;;;;;;5032353;28;20025;-70
2022/08/31 01:52:37;;;;;;;0.40;0.30;;;16.70;99.90;;;;;;5032144;28;20048;-71
2022/08/31 01:55:06;;;;;;;2.33;0.30;;;16.80;99.90;;;;;;5033721;28;20402;-78
2022/08/31 01:57:34;;;;;;;0.63;0.20;;;16.90;99.90;;;;;;5033482;28;20052;-70
2022/08/31 02:00:07;;;;;;;2.55;0.47;;;17.00;99.90;;;;;;5033501;28;20044;-78
2022/08/31 02:02:35;;;;;;;1.50;0.40;;;17.10;99.90;;;;;;5033496;28;20022;-78
2022/08/31 02:05:02;;;;;;;3.67;0.57;;;17.20;99.90;;;;;;5033728;28;20025;-74
2022/08/31 02:07:30;;;;;;;1.95;0.55;;;17.10;99.90;;;;;;5033695;28;20021;-69
2022/08/31 02:09:57;;;;;;;1.85;0.40;;;17.10;99.90;;;;;;5032953;28;20120;-69
2022/08/31 02:12:24;;;;;;;1.23;0.43;;;17.10;99.90;;;;;;5032962;28;20538;-70
2022/08/31 02:14:52;;;;;;;0.80;0.57;;;17.20;99.90;;;;;;5031178;28;20057;-70
2022/08/31 02:17:19;;;;;;;2.95;0.40;;;17.30;99.90;;;;;;5031744;28;20045;-77
2022/08/31 02:19:46;;;;;;;1.92;0.45;;;17.40;99.90;;;;;;5031291;28;20083;-69
2022/08/31 02:22:14;;;;;;;4.53;0.63;;;17.30;99.90;;;;;;5033180;28;20036;-78
2022/08/31 02:24:41;;;;;;;1.15;0.43;;;17.10;99.90;;;;;;5033875;28;20082;-70
2022/08/31 02:27:08;;;;;;;0.95;0.43;;;17.00;99.90;;;;;;5039834;28;20022;-70
2022/08/31 02:29:39;;;;;;;2.33;0.90;;;16.90;99.90;;;;;;5040019;28;20032;-70
2022/08/31 02:32:06;;;;;;;3.00;0.73;;;16.80;99.90;;;;;;5039993;28;20026;-79
2022/08/31 02:34:34;;;;;;;1.48;0.38;;;16.80;99.90;;;;;;5039795;28;20529;-78
2022/08/31 02:37:01;;;;;;;3.97;0.70;;;16.70;99.90;;;;;;5039721;28;20025;-77
2022/08/31 02:39:31;;;;;;;1.80;0.50;;;16.70;99.90;;;;;;5039823;28;20385;-79
2022/08/31 02:41:58;;;;;;;1.40;0.68;;;16.70;99.90;;;;;;5038552;28;20398;-77
2022/08/31 02:44:26;;;;;;;3.70;0.80;;;16.70;99.90;;;;;;5042058;28;20028;-69
2022/08/31 02:46:53;;;;;;;1.85;0.68;;;16.70;99.90;;;;;;5049044;28;20025;-70
2022/08/31 02:49:20;;;;;;;1.98;0.47;;;16.70;99.90;;;;;;5048400;28;20021;-78
2022/08/31 02:51:48;;;;;;;1.23;0.52;;;16.70;99.90;;;;;;5037809;28;20381;-78
2022/08/31 02:54:15;;;;;;;5.25;0.57;;;16.70;99.90;;;;;;5039790;28;20029;-77
2022/08/31 02:56:42;;;;;;;10.13;1.20;;;16.70;99.90;;;;;;5039605;28;20026;-79
2022/08/31 02:59:10;;;;;;;1.27;0.55;;;16.70;99.90;;;;;;5022009;28;20398;-70
2022/08/31 03:01:38;;;;;;;5.18;0.70;;;16.70;99.90;;;;;;5048981;28;20021;-70
2022/08/31 03:04:06;;;;;;;4.30;0.98;;;16.60;99.90;;;;;;5049959;28;20049;-70
2022/08/31 03:06:33;;;;;;;3.40;0.85;;;16.60;99.90;;;;;;5048245;28;20013;-69
2022/08/31 03:09:01;;;;;;;1.63;0.60;;;16.50;99.90;;;;;;5048795;28;20013;-79
2022/08/31 03:11:29;;;;;;;6.20;0.93;;;16.50;99.90;;;;;;5050117;28;20187;-71
2022/08/31 03:13:59;;;;;;;4.45;0.70;;;16.60;99.90;;;;;;5059598;28;20041;-74
2022/08/31 03:16:28;;;;;;;8.68;0.90;;;16.70;99.90;;;;;;5059191;28;20056;-69
2022/08/31 03:18:55;;;;;;;6.55;1.00;;;16.70;99.90;;;;;;5059453;28;20127;-70
2022/08/31 03:21:22;;;;;;;2.17;0.63;;;16.70;99.90;;;;;;5059466;28;20036;-69
2022/08/31 03:23:49;;;;;;;8.90;1.10;;;16.80;99.90;;;;;;5051522;28;20021;-69
2022/08/31 03:26:17;;;;;;;6.78;1.10;;;16.80;99.90;;;;;;5049310;28;20041;-70
2022/08/31 03:28:44;;;;;;;4.28;1.15;;;16.90;99.90;;;;;;5053335;28;20027;-69
2022/08/31 03:31:11;;;;;;;1.95;1.00;;;17.00;99.90;;;;;;5046474;28;20482;-79
2022/08/31 03:33:39;;;;;;;8.80;1.50;;;17.00;99.90;;;;;;5049050;28;20025;-77
2022/08/31 03:36:06;;;;;;;5.10;1.38;;;17.00;99.90;;;;;;5048729;28;20025;-79
2022/08/31 03:38:34;;;;;;;6.47;1.70;;;17.00;99.90;;;;;;5040947;28;20021;-70
2022/08/31 03:41:02;;;;;;;5.03;1.40;;;17.00;99.90;;;;;;5036880;28;20076;-70
2022/08/31 03:43:29;;;;;;;3.88;1.13;;;17.10;99.90;;;;;;5041795;28;20633;-71
2022/08/31 03:45:57;;;;;;;6.28;1.40;;;17.20;99.90;;;;;;5040629;28;20014;-79
2022/08/31 03:48:24;;;;;;;7.90;1.92;;;17.30;99.90;;;;;;5043003;28;20025;-77
2022/08/31 03:50:51;;;;;;;7.32;1.40;;;17.30;99.90;;;;;;5041182;28;20159;-79
2022/08/31 03:53:19;;;;;;;6.35;1.48;;;17.40;99.90;;;;;;5050045;28;20025;-75
2022/08/31 03:55:46;;;;;;;5.65;1.90;;;17.30;99.90;;;;;;5046658;28;20040;-79
2022/08/31 03:58:13;;;;;;;7.03;1.30;;;17.30;99.90;;;;;;5047847;28;20010;-71
2022/08/31 04:00:43;;;;;;;7.82;1.95;;;17.20;99.90;;;;;;5039122;28;20032;-80
2022/08/31 04:03:12;;;;;;;4.88;1.80;;;17.20;99.90;;;;;;5027230;28;20017;-70
2022/08/31 04:05:43;;;;;;;14.45;3.63;;;17.30;99.90;;;;;;5044920;28;20017;-80
2022/08/31 04:08:11;;;;;;;10.38;2.35;;;17.30;99.90;;;;;;5042379;28;20017;-78
2022/08/31 04:10:40;;;;;;;10.30;2.72;;;17.40;99.90;;;;;;5043934;28;20498;-71
2022/08/31 04:13:08;;;;;;;9.00;3.08;;;17.50;99.90;;;;;;5044379;28;20017;-70
2022/08/31 04:15:40;;;;;;;7.10;1.90;;;17.40;99.90;;;;;;5044387;28;20030;-80
2022/08/31 04:18:08;;;;;;;11.25;2.42;;;17.40;99.90;;;;;;5043976;28;20037;-74
2022/08/31 04:20:38;;;;;;;8.82;2.13;;;17.20;99.90;;;;;;5042780;28;20033;-79
2022/08/31 04:23:06;;;;;;;14.10;2.90;;;17.00;99.90;;;;;;5043401;28;20092;-76
2022/08/31 04:25:38;;;;;;;13.77;2.67;;;17.00;99.90;;;;;;5040760;28;20041;-72
2022/08/31 04:28:07;;;;;;;6.15;2.28;;;16.90;99.90;;;;;;5036059;28;20032;-76
2022/08/31 04:30:39;;;;;;;11.75;2.40;;;16.90;99.90;;;;;;5035543;28;20071;-74
2022/08/31 04:33:07;;;;;;;11.05;3.10;;;16.90;99.90;;;;;;5040014;28;20104;-71
2022/08/31 04:35:34;;;;;;;12.88;3.22;;;16.90;99.90;;;;;;5045252;28;20025;-79
2022/08/31 04:38:02;;;;;;;12.73;2.40;;;16.80;99.90;;;;;;5043979;28;20017;-73
2022/08/31 04:40:29;;;;;;;7.18;2.08;;;16.80;99.90;;;;;;5043492;28;20044;-80
2022/08/31 04:42:56;;;;;;;9.50;2.60;;;16.70;99.90;;;;;;5045370;28;20088;-79
2022/08/31 04:45:24;;;;;;;10.07;3.20;;;16.70;99.90;;;;;;5048599;28;20109;-80
2022/08/31 04:47:51;;;;;;;12.43;3.25;;;16.70;99.90;;;;;;5040882;28;20022;-80
2022/08/31 04:50:19;;;;;;;14.18;2.22;;;16.70;99.90;;;;;;5047967;28;20018;-80
2022/08/31 04:52:49;;;;;;;10.10;3.20;;;16.60;99.90;;;;;;5044678;28;20151;-78
2022/08/31 04:55:17;;;;;;;10.80;2.35;;;16.60;99.90;;;;;;5043191;28;20024;-75
2022/08/31 04:57:44;;;;;;;7.93;2.80;;;16.50;99.90;;;;;;5044087;28;20182;-80
2022/08/31 05:00:12;;;;;;;6.95;2.45;;;16.50;99.90;;;;;;5042740;28;20065;-74
2022/08/31 05:02:39;;;;;;;7.85;2.40;;;16.50;99.90;;;;;;5041426;28;20025;-80
2022/08/31 05:05:07;;;;;;;10.05;1.88;;;16.50;99.90;;;;;;5044834;28;20025;-72
2022/08/31 05:07:36;;;;;;;14.98;2.75;;;16.60;99.90;;;;;;5043994;28;20037;-79
2022/08/31 05:10:04;;;;;;;15.38;3.28;;;16.70;99.90;;;;;;5043261;28;20044;-78
2022/08/31 05:12:31;;;;;;;13.27;2.13;;;16.70;99.90;;;;;;5043326;28;20033;-71
2022/08/31 05:14:59;;;;;;;8.38;2.15;;;16.70;99.90;;;;;;5038189;28;20025;-79
2022/08/31 05:17:26;;;;;;;15.48;2.85;;;16.60;99.90;;;;;;5034057;28;20045;-77
2022/08/31 05:19:53;;;;;;;5.32;2.30;;;16.60;99.90;;;;;;5033769;28;20057;-71
2022/08/31 05:22:21;;;;;;;14.88;2.25;;;16.60;99.90;;;;;;5033772;28;20021;-71
2022/08/31 05:24:48;;;;;;;10.77;3.40;;;16.50;99.90;;;;;;5033687;28;20033;-71
2022/08/31 05:27:16;;;;;;;11.63;2.90;;;16.50;99.90;;;;;;5033956;28;20056;-71
2022/08/31 05:29:43;;;;;;;11.90;2.42;;;16.40;99.90;;;;;;5032827;28;20026;-80
2022/08/31 05:32:10;;;;;;;10.57;2.63;;;16.40;99.90;;;;;;5034030;28;20413;-79
2022/08/31 05:34:38;;;;;;;10.20;2.47;;;16.30;99.90;;;;;;5033897;28;20033;-80
2022/08/31 05:37:05;;;;;;;9.65;2.75;;;16.30;99.90;;;;;;5033745;28;20105;-72
2022/08/31 05:39:32;;;;;;;9.65;2.63;;;16.30;99.90;;;;;;5035693;28;20040;-80
2022/08/31 05:42:00;;;;;;;11.07;2.22;;;16.20;99.90;;;;;;5041899;28;20072;-78
2022/08/31 05:44:27;;;;;;;17.48;3.28;;;16.20;99.90;;;;;;5043729;28;20029;-74
2022/08/31 05:46:54;;;;;;;10.15;1.95;;;16.10;99.90;;;;;;5039069;28;20026;-78
2022/08/31 05:49:22;;;;;;;11.77;2.10;;;16.00;99.90;;;;;;5033687;28;20053;-71
2022/08/31 05:51:49;;;;;;;6.75;2.17;;;16.00;99.90;;;;;;5015689;28;20026;-71
2022/08/31 05:54:16;;;;;;;12.25;2.42;;;16.00;99.90;;;;;;5033314;28;20113;-72
2022/08/31 05:56:44;;;;;;;9.73;1.80;;;15.90;99.90;;;;;;5032889;28;20096;-71
2022/08/31 05:59:13;;;;;;;8.60;2.42;;;16.00;99.90;;;;;;5041249;28;20053;-79
2022/08/31 06:01:41;;;;;;;8.75;2.40;;;16.00;99.90;;;;;;5049830;28;20029;-78
2022/08/31 06:04:09;;;;;;;7.97;1.60;;;16.00;99.90;;;;;;5053142;28;20100;-70
2022/08/31 06:06:37;;;;;;;4.72;1.60;;;15.90;99.90;;;;;;5052925;28;20027;-79
2022/08/31 06:09:06;;;;;;;4.15;1.33;;;15.90;99.90;;;;;;5053153;28;20076;-80
2022/08/31 06:11:38;;;;;;;5.57;1.75;;;15.90;99.90;;;;;;5052915;28;20021;-79
2022/08/31 06:14:05;;;;;;;5.05;1.17;;;15.90;99.90;;;;;;5053225;28;20013;-72
2022/08/31 06:16:34;;;;;;;8.05;1.75;;;15.90;99.90;;;;;;5051192;28;20127;-79
2022/08/31 06:19:05;;;;;;;2.63;1.27;;;15.80;99.90;;;;;;5052755;28;20029;-79
2022/08/31 06:21:37;;;;;;;5.70;1.33;;;15.80;99.90;;;;;;5053072;28;20063;-79
2022/08/31 06:24:05;;;;;;;6.00;1.95;;;15.80;99.90;;;;;;5052956;28;20017;-71
2022/08/31 06:26:34;;;;;;;6.45;1.50;;;15.80;99.90;;;;;;5051511;28;20708;-80
2022/08/31 06:29:04;;;;;;;8.25;1.73;;;15.80;99.90;;;;;;5053362;28;20059;-80
2022/08/31 06:31:33;;;;;;;5.65;1.50;;;15.80;99.90;;;;;;5053204;28;20373;-71
2022/08/31 06:34:05;;;;;;;10.05;2.40;;;15.70;99.90;;;;;;5053325;28;20416;-79
2022/08/31 06:36:34;;;;;;;8.38;2.22;;;15.70;99.90;;;;;;5053097;28;20018;-80
2022/08/31 06:39:02;;;;;;;6.60;1.48;;;15.60;99.90;;;;;;5053004;28;20025;-71
2022/08/31 06:41:32;;;;;;;5.10;1.77;;;15.60;99.90;;;;;;5035407;28;20036;-79
2022/08/31 06:44:01;;;;;;;4.93;1.65;;;15.50;99.90;;;;;;5053279;28;20066;-71
2022/08/31 06:46:31;;;;;;;5.38;2.03;;;15.50;99.90;;;;;;5053515;28;20099;-72
2022/08/31 06:48:58;;;;;;;4.53;1.15;;;15.50;99.90;;;;;;5053389;28;20040;-71
2022/08/31 06:51:26;;;;;;;6.65;1.20;;;15.40;99.90;;;;;;5041650;28;20039;-70
2022/08/31 06:53:54;;;;;;;6.20;1.63;;;15.40;99.90;;;;;;5041588;28;20025;-72
2022/08/31 06:56:24;;;;;;;5.75;1.85;;;15.40;99.90;;;;;;5043497;28;20068;-72
2022/08/31 06:58:53;;;;;;;10.68;2.80;;;15.40;99.90;;;;;;5042062;28;20025;-71
2022/08/31 07:01:23;;;;;;;3.05;1.00;;;15.40;99.90;;;;;;5041376;28;20036;-71
2022/08/31 07:03:51;;;;;;;10.25;1.45;;;15.30;99.90;;;;;;5042000;28;20422;-78
2022/08/31 07:06:20;;;;;;;4.45;1.30;;;15.20;99.90;;;;;;5041723;28;20496;-80
2022/08/31 07:08:53;;;;;;;7.38;1.30;;;15.10;99.90;;;;;;5041731;28;20083;-71
2022/08/31 07:11:32;;;;;;;8.55;1.15;;;15.10;99.90;;;;;;5053586;28;20051;-71
2022/08/31 07:14:00;;;;;;;5.90;1.55;;;15.00;99.90;;;;;;5056415;28;20033;-71
2022/08/31 07:16:28;;;;;;;3.85;1.67;;;15.00;99.90;;;;;;5048490;28;20099;-71
2022/08/31 07:18:58;;;;;;;6.93;1.63;;;14.90;99.90;;;;;;5045174;28;20469;-71
2022/08/31 07:21:28;;;;;;;5.10;1.77;;;14.90;99.90;;;;;;5045419;28;20485;-71
2022/08/31 07:23:58;;;;;;;10.05;1.85;;;14.90;99.90;;;;;;5045077;28;20063;-79
2022/08/31 07:26:30;;;;;;;8.57;1.92;;;14.80;99.90;;;;;;5045657;28;20021;-71
2022/08/31 07:28:58;;;;;;;5.45;1.92;;;14.80;99.90;;;;;;5044831;28;20100;-74
2022/08/31 07:31:36;;;;;;;2.20;1.20;;;14.80;99.90;;;;;;5038145;28;20390;-71
2022/08/31 07:34:06;;;;;;;5.53;1.88;;;14.70;99.90;;;;;;5036577;28;20025;-80
2022/08/31 07:42:07;;;;;;;3.25;0.77;;;14.70;99.90;;;;;;5034858;28;20025;-80
2022/08/31 07:42:10;;;;;;;9.20;1.93;;;14.70;99.90;;;;;;5041627;28;20551;-71
2022/08/31 07:44:42;;;;;;;3.53;0.93;;;14.60;99.90;;;;;;5044635;28;20040;-71
2022/08/31 07:47:11;;;;;;;5.93;1.40;;;14.60;99.90;;;;;;5045654;28;20021;-79
2022/08/31 07:49:49;;;;;;;9.52;1.85;;;14.60;99.90;;;;;;5038158;28;20486;-71
2022/08/31 07:52:26;;;;;;;8.85;2.28;;;14.60;99.90;;;;;;5035187;28;20076;-71
2022/08/31 07:54:58;;;;;;;5.35;1.33;;;14.60;99.90;;;;;;5036034;28;20017;-71
2022/08/31 07:57:28;;;;;;;7.03;2.47;;;14.50;99.90;;;;;;5035410;28;20030;-80
2022/08/31 08:00:07;;;;;;;4.50;1.25;;;14.50;99.90;;;;;;5035623;28;20033;-71
2022/08/31 08:02:39;;;;;;;11.10;2.40;;;14.50;99.90;;;;;;5035394;28;20068;-71
2022/08/31 08:05:11;;;;;;;9.55;1.75;;;14.50;99.90;;;;;;5035347;28;20116;-81
2022/08/31 08:07:39;;;;;;;11.10;1.95;;;14.50;99.90;;;;;;5035768;28;20021;-71
2022/08/31 08:10:13;;;;;;;7.35;2.20;;;14.40;99.90;;;;;;5035317;28;20429;-75
2022/08/31 08:12:47;;;;;;;9.93;1.58;;;14.40;99.90;;;;;;5037416;28;20539;-81
2022/08/31 08:15:15;;;;;;;9.63;1.65;;;14.40;99.90;;;;;;5044962;28;20037;-70
2022/08/31 08:17:42;;;;;;;8.13;2.05;;;14.40;99.90;;;;;;5025379;28;20140;-71
2022/08/31 08:20:09;;;;;;;6.88;2.40;;;14.40;99.90;;;;;;5045149;28;20037;-71
2022/08/31 08:22:42;;;;;;;8.45;2.33;;;14.40;99.90;;;;;;5043662;28;20028;-70
2022/08/31 08:25:10;;;;;;;8.13;2.00;;;14.40;99.90;;;;;;5043792;28;20036;-71
2022/08/31 08:27:38;;;;;;;6.97;2.38;;;14.40;99.90;;;;;;5043015;28;20454;-70
2022/08/31 08:30:07;;;;;;;16.20;2.92;;;14.40;99.90;;;;;;5045636;28;20021;-71
2022/08/31 08:32:36;;;;;;;7.95;2.80;;;14.40;99.90;;;;;;5044205;28;20029;-78
2022/08/31 08:35:04;;;;;;;8.13;2.45;;;14.40;99.90;;;;;;5043082;28;20025;-78
2022/08/31 08:37:31;;;;;;;11.30;2.50;;;14.40;99.90;;;;;;5046436;28;20048;-83
2022/08/31 08:40:00;;;;;;;9.27;3.00;;;14.40;99.90;;;;;;5041078;28;20025;-82
2022/08/31 08:42:27;;;;;;;8.18;3.13;;;14.30;99.90;;;;;;5043004;28;20413;-71
2022/08/31 08:44:55;;;;;;;10.13;2.75;;;14.40;99.90;;;;;;5046017;28;20036;-77
2022/08/31 08:47:31;;;;;;;11.18;2.80;;;14.40;99.90;;;;;;5045660;28;20473;-70
2022/08/31 08:50:04;;;;;;;;;;;14.40;99.90;;;;;;5045401;28;20028;-70
2022/08/31 08:52:35;;;;;;;13.45;2.40;;;14.40;99.90;;;;;;5043042;28;20280;-79
2022/08/31 08:55:07;;;;;;;12.65;3.17;;;14.30;99.90;;;;;;5049820;28;20048;-70
2022/08/31 08:57:38;;;;;;;7.35;2.42;;;14.40;99.90;;;;;;5050411;28;20027;-71
2022/08/31 09:00:10;;;;;;;8.35;2.58;;;14.30;99.90;;;;;;5051247;28;20570;-71
2022/08/31 09:02:57;;;;;;;9.48;1.90;;;14.30;99.90;;;;;;5048871;28;20135;-83
2022/08/31 09:05:54;;;;;;;8.27;2.55;;;14.30;99.90;;;;;;5049221;28;20481;-83
2022/08/31 09:08:42;;;;;;;8.57;2.83;;;14.30;99.90;;;;;;5039175;28;20059;-73
2022/08/31 09:11:51;;;;;;;8.40;2.75;;;14.30;99.90;;;;;;5051630;28;20025;-83
2022/08/31 09:14:37;;;;;;;8.18;3.35;;;14.20;99.90;;;;;;5049975;28;20596;-83
2022/08/31 09:17:25;;;;;;;10.80;2.25;;;14.20;99.90;;;;;;5048038;28;20076;-83
2022/08/31 09:19:59;;;;;;;7.18;2.70;;;14.20;99.90;;;;;;5048190;28;20030;-71
2022/08/31 09:22:48;;;;;;;14.05;3.03;;;14.20;99.90;;;;;;5050532;28;20013;-83
2022/08/31 09:25:19;;;;;;;9.52;3.22;;;14.20;99.90;;;;;;5050082;28;20029;-71
2022/08/31 09:27:58;;;;;;;9.65;2.95;;;14.20;99.90;;;;;;5050360;28;20017;-71
2022/08/31 09:30:53;;;;;;;9.77;1.98;;;14.20;99.90;;;;;;5049788;28;20035;-73
2022/08/31 09:33:28;;;;;;;4.73;2.20;;;14.30;99.90;;;;;;5039732;28;20033;-78
2022/08/31 09:36:16;;;;;;;11.43;2.20;;;14.30;99.90;;;;;;5046424;28;20738;-71
2022/08/31 09:38:45;;;;;;;9.73;2.55;;;14.30;99.90;;;;;;5048043;28;20035;-73
2022/08/31 09:41:25;;;;;;;12.48;2.45;;;14.30;99.90;;;;;;5050298;28;20059;-82
2022/08/31 09:43:54;;;;;;;11.82;1.83;;;14.30;99.90;;;;;;5049646;28;20028;-82
2022/08/31 09:46:27;;;;;;;10.85;2.45;;;14.30;99.90;;;;;;5050112;28;20021;-84
2022/08/31 09:49:01;;;;;;;8.15;1.77;;;14.30;99.90;;;;;;5047542;28;20432;-82
2022/08/31 09:51:32;;;;;;;7.60;1.70;;;14.30;99.90;;;;;;5050079;28;20432;-82
2022/08/31 09:57:06;;;;;;;7.82;1.88;;;14.20;99.90;;;;;;5050268;28;20044;-81
2022/08/31 09:59:44;;;;;;;9.95;2.17;;;14.20;99.90;;;;;;5051509;28;20151;-82
2022/08/31 10:02:27;;;;;;;12.70;3.10;;;14.20;99.90;;;;;;5049400;28;20363;-82
2022/08/31 10:04:59;;;;;;;4.53;1.70;;;14.20;99.90;;;;;;5049050;28;20025;-83
2022/08/31 10:07:47;;;;;;;14.02;2.55;;;14.20;99.90;;;;;;5050512;28;20017;-83
2022/08/31 10:10:21;;;;;;;9.48;2.00;;;14.20;99.90;;;;;;5051738;28;20029;-82
2022/08/31 10:13:08;;;;;;;6.30;1.65;;;14.20;99.90;;;;;;5050825;28;20059;-83
2022/08/31 10:16:03;;;;;;;9.18;1.40;;;14.20;99.90;;;;;;5031163;28;20029;-82
2022/08/31 10:18:46;;;;;;;10.50;2.70;;;14.10;99.90;;;;;;5046653;28;20048;-71
2022/08/31 10:21:25;;;;;;;9.27;1.75;;;14.10;99.90;;;;;;5048563;28;20099;-82
2022/08/31 10:24:09;;;;;;;5.97;1.70;;;14.20;99.90;;;;;;5051312;28;20019;-71
2022/08/31 10:26:52;;;;;;;10.60;2.70;;;14.20;99.90;;;;;;5051414;28;20120;-81
2022/08/31 10:29:38;;;;;;;15.40;2.00;;;14.10;99.90;;;;;;5050945;28;20025;-73
2022/08/31 10:32:23;;;;;;;8.73;1.55;;;14.10;99.90;;;;;;5049215;28;20055;-78
2022/08/31 10:35:18;;;;;;;5.20;1.83;;;14.10;99.90;;;;;;5048558;28;20021;-78
2022/08/31 10:38:07;;;;;;;10.05;3.08;;;14.10;99.90;;;;;;5050480;28;20529;-82
2022/08/31 10:40:53;;;;;;;12.80;2.95;;;14.10;99.90;;;;;;5048511;28;20076;-82
2022/08/31 10:43:26;;;;;;;10.52;1.92;;;14.10;99.90;;;;;;5032995;28;20021;-83
2022/08/31 10:45:54;;;;;;;7.90;1.85;;;14.10;99.90;;;;;;5051655;28;20017;-83
2022/08/31 10:48:25;;;;;;;13.52;2.60;;;14.10;99.90;;;;;;5050594;28;20036;-72
2022/08/31 10:51:04;;;;;;;5.97;2.42;;;14.10;99.90;;;;;;5048918;28;20025;-82
2022/08/31 10:54:03;;;;;;;8.82;2.33;;;14.00;99.90;;;;;;5052638;28;20093;-82
2022/08/31 10:57:15;;;;;;;7.00;1.83;;;14.00;99.90;;;;;;5036758;28;20017;-75
2022/08/31 11:00:08;;;;;;;7.22;1.77;;;14.00;99.90;;;;;;4919661;29;20032;-79
2022/08/31 11:03:06;;;;;;;14.23;3.10;;;14.00;99.90;;;;;;5049856;28;20048;-73
2022/08/31 11:05:40;;;;;;;10.02;2.28;;;14.00;99.90;;;;;;5053476;28;20453;-77
2022/08/31 11:08:36;;;;;;;12.82;2.20;;;14.00;99.90;;;;;;5053950;28;20392;-82
2022/08/31 11:11:10;;;;;;;12.15;2.40;;;14.00;99.90;;;;;;5053803;28;20489;-75
2022/08/31 11:14:00;;;;;;;7.00;1.75;;;14.00;99.90;;;;;;5055021;28;20154;-72
2022/08/31 11:16:37;;;;;;;10.57;2.38;;;14.00;99.90;;;;;;5049656;28;20132;-80
2022/08/31 11:19:36;;;;;;;11.05;2.47;;;14.00;99.90;;;;;;5052733;28;20019;-81
2022/08/31 11:22:28;;;;;;;17.73;2.35;;;14.00;99.90;;;;;;5053013;28;20029;-78
2022/08/31 11:25:25;;;;;;;7.03;1.95;;;13.90;99.90;;;;;;5053545;28;20013;-78
2022/08/31 11:28:22;;;;;;;10.90;2.20;;;13.90;99.90;;;;;;5054605;28;20024;-71
2022/08/31 11:30:50;;;;;;;;;;;13.90;99.90;;;;;;5045538;28;20021;-82
2022/08/31 11:33:26;;;;;;;10.07;1.63;;;13.90;99.90;;;;;;5050632;28;19991;-81
2022/08/31 11:36:07;;;;;;;7.50;1.40;;;13.90;99.90;;;;;;5053490;28;20024;-82
2022/08/31 11:39:14;;;;;;;6.43;1.83;;;13.80;99.90;;;;;;5052146;28;20028;-80
2022/08/31 11:41:48;;;;;;;23.17;3.00;;;13.80;99.90;;;;;;5053378;28;20025;-80
2022/08/31 11:44:35;;;;;;;8.68;1.73;;;13.80;99.90;;;;;;5054828;28;20052;-78
2022/08/31 11:47:08;;;;;;;12.30;2.33;;;13.80;99.90;;;;;;5054551;28;20053;-72
2022/08/31 11:49:48;;;;;;;8.35;2.08;;;13.80;99.90;;;;;;5052543;28;20025;-71
2022/08/31 11:52:27;;;;;;;12.32;3.33;;;13.70;99.90;;;;;;5051670;28;20100;-72
2022/08/31 11:55:01;;;;;;;8.02;2.30;;;13.70;99.90;;;;;;5052602;28;20021;-81
2022/08/31 11:57:55;;;;;;;8.02;2.58;;;13.70;99.90;;;;;;5050465;28;20487;-82
2022/08/31 12:00:40;;;;;;;4.72;1.23;;;13.70;99.90;;;;;;5053298;28;20029;-75
2022/08/31 12:03:08;;;;;;;13.75;2.10;;;13.70;99.90;;;;;;5050374;28;20104;-80
2022/08/31 12:05:56;;;;;;;15.57;2.55;;;13.60;99.90;;;;;;5036466;28;20021;-73
2022/08/31 12:08:31;;;;;;;8.00;2.35;;;13.60;99.90;;;;;;5053514;28;20100;-81
2022/08/31 12:11:45;;;;;;;10.93;1.90;;;13.60;99.90;;;;;;5053719;28;20059;-78
2022/08/31 12:14:27;;;;;;;9.23;2.13;;;13.50;99.90;;;;;;5053176;28;20103;-82
2022/08/31 12:17:21;;;;;;;5.30;1.42;;;13.50;99.90;;;;;;5050437;28;20656;-82
2022/08/31 12:20:06;;;;;;;6.82;2.05;;;13.40;99.90;;;;;;5050665;28;20037;-72
2022/08/31 12:26:20;;;;;;;11.00;1.95;;;13.30;99.90;;;;;;5052187;28;20504;-82
2022/08/31 12:29:02;;;;;;;11.40;2.45;;;13.30;99.90;;;;;;5051414;28;20473;-81
2022/08/31 12:31:29;;;;;;;6.35;1.80;;;13.30;99.90;;;;;;5051680;28;20036;-81
2022/08/31 12:34:06;;;;;;;6.90;1.55;;;13.30;99.90;;;;;;5052094;28;20493;-71
2022/08/31 12:36:36;;;;;;;7.97;1.70;;;13.30;99.90;;;;;;5050567;28;20104;-81
2022/08/31 12:39:23;;;;;;;12.13;2.08;;;13.30;99.90;;;;;;5052536;28;20092;-71
2022/08/31 12:41:54;;;;;;;8.68;1.80;;;13.40;99.90;;;;;;5052055;28;20234;-71
2022/08/31 12:44:33;;;;;;;9.60;2.55;;;13.40;99.90;;;;;;5053492;28;20060;-81
2022/08/31 12:47:05;;;;;;;12.20;2.08;;;13.40;99.90;;;;;;5053674;28;20025;-82
2022/08/31 12:49:47;;;;;;;8.75;2.45;;;13.40;99.90;;;;;;5051616;28;20017;-81
2022/08/31 12:52:46;;;;;;;12.48;2.45;;;13.40;99.90;;;;;;5050376;28;20025;-81
2022/08/31 12:55:22;;;;;;;11.40;2.38;;;13.40;99.90;;;;;;5050841;28;20025;-71
2022/08/31 12:58:05;;;;;;;15.77;2.20;;;13.40;99.90;;;;;;5052808;28;20048;-72
2022/08/31 13:00:42;;;;;;;7.15;2.10;;;13.40;99.90;;;;;;5051342;28;20037;-72
2022/08/31 13:03:21;;;;;;;8.60;1.85;;;13.40;99.90;;;;;;5049664;28;20016;-82
2022/08/31 13:06:08;;;;;;;6.25;1.52;;;13.40;99.90;;;;;;5050934;28;20032;-78
2022/08/31 13:08:41;;;;;;;7.90;2.25;;;13.40;99.90;;;;;;5051267;28;20535;-81
2022/08/31 13:11:17;;;;;;;9.00;1.80;;;13.40;99.90;;;;;;5052509;28;20021;-81
2022/08/31 13:13:45;;;;;;;13.63;1.92;;;13.40;99.90;;;;;;5053685;28;20452;-81
2022/08/31 13:16:13;;;;;;;11.43;2.70;;;13.40;99.90;;;;;;5033325;28;20041;-82
2022/08/31 13:18:40;;;;;;;8.40;1.90;;;13.40;99.90;;;;;;5050248;28;20036;-82
2022/08/31 13:21:09;;;;;;;13.52;2.10;;;13.40;99.90;;;;;;5051394;28;20491;-81
2022/08/31 13:23:43;;;;;;;7.03;2.05;;;13.40;99.90;;;;;;5051556;28;20389;-81
2022/08/31 13:26:19;;;;;;;4.68;1.67;;;13.40;99.90;;;;;;5050265;28;20441;-81
2022/08/31 13:28:59;;;;;;;7.95;2.17;;;13.40;99.90;;;;;;5050952;28;20017;-81